Route Details

Aircraft Information
Group: North America Fleet
Types: B738, B752, B762, B763
Route Data
Distance: 1609nm
Duration: 4h 45m
Origin METAR: KCVG 152352Z 35006KT 10SM FEW047 FEW090 BKN300 24/17 A2995 RMK AO2 SLP133 MDT CU NE T02390167 10272 20239 53003
Dest. METAR: KONT 152353Z 25011G18KT 10SM FEW120 FEW180 36/13 A2978 RMK AO2 SLP062 CB DSNT E AND SE T03560133 10367 20311 56016
Freight Data
(for Aug 16, 2022)
Load Factor:
21%
Manifested Cargo: 26,280lbs
Financial History
Total Freight: 0lbs
Average Load: 0lbs/flt
Fuel Used: 0lbs
Avg. Fuel Used: 0lbs/flt
Fuel Expense: $0
Avg. Fuel Expense: $0
Avg. Fuel Cost: $0/lbs
Total Gross Income: $0
Pilot Pay: $0
Total Expenses: $0
Total Revenue: $0
Average Revenue: $0

Capitol Logistics 430




KCVG
Cincinnati/Northern Kentucky International Airport
Covington, Kentucky
KONT
Ontario International Airport
Ontario, California

Activity Log

Date Flight Route Aircraft Duration
No Flights Yet